Mereta, Texas
Current Conditions -  °F | °C
As of 3:51 AM on Saturday 01 Nov 2014 (Local Time) from KSJT Reporting Station
Clear Clear  
Wind Chill: 42°   Ceiling: Unl
Heat Index: 42°   Visibility: 10mi
Dew Point: 31°   Wind: 0mph
Humidity: 65%   Direction: NA
Pressure: 30.32"   Gusts: NA
Location:  31.46°N, 100.14°W
Report Text: KSJT 010851Z AUTO 00000KT 10SM CLR 06/M01 A3032 RMK AO2 SLP261 T00561006 56010
Loading
Personal Weather Stations






























Interactive Weather Map
Tropical Storm Tracking
New forecast layout! Learn more

10-Day Weather Forecast

Advertisements
Track Severe Weather on mobile